createdAt,value
2023-01-19T00:02:44.715Z,950.66
2023-01-19T00:07:46.213Z,950.73
2023-01-19T00:12:47.289Z,950.85
2023-01-19T00:17:48.805Z,950.93
2023-01-19T00:22:50.434Z,951
2023-01-19T00:27:51.714Z,951.07
2023-01-19T00:32:53.328Z,951.11
2023-01-19T00:37:54.590Z,951.18
2023-01-19T00:42:56.733Z,951.2
2023-01-19T00:47:58.545Z,951.27
2023-01-19T00:53:00.142Z,951.3
2023-01-19T00:58:01.162Z,951.36
2023-01-19T01:03:03.032Z,951.47
2023-01-19T01:08:03.870Z,951.46
2023-01-19T01:13:20.052Z,951.47
2023-01-19T01:18:07.556Z,951.5
2023-01-19T01:23:09.464Z,951.5
2023-01-19T01:28:11.300Z,951.6
2023-01-19T01:33:13.123Z,951.64
2023-01-19T01:38:14.943Z,951.7
2023-01-19T01:43:16.794Z,951.7
2023-01-19T01:48:18.332Z,951.76
2023-01-19T01:53:20.126Z,951.8
2023-01-19T01:58:21.996Z,951.86
2023-01-19T02:03:24.264Z,951.91
2023-01-19T02:08:26.104Z,951.84
2023-01-19T02:13:27.737Z,951.87
2023-01-19T02:18:29.248Z,951.87
2023-01-19T02:23:31.274Z,951.9
2023-01-19T02:28:33.310Z,952.02
2023-01-19T02:33:34.820Z,951.98
2023-01-19T02:38:36.115Z,952.09
2023-01-19T02:43:37.759Z,952.04
2023-01-19T02:48:39.768Z,952
2023-01-19T02:53:41.371Z,952.11
2023-01-19T02:58:43.058Z,952.16
2023-01-19T03:03:45.195Z,952.14
2023-01-19T03:08:46.462Z,952.13
2023-01-19T03:13:48.535Z,952.12
2023-01-19T03:18:50.132Z,952.08
2023-01-19T03:23:52.360Z,952.07
2023-01-19T03:28:53.816Z,952.08
2023-01-19T03:33:55.465Z,952.03
2023-01-19T03:38:57.062Z,952.09
2023-01-19T03:43:59.181Z,952.11
2023-01-19T03:49:00.835Z,952.15
2023-01-19T03:54:02.854Z,952.16
2023-01-19T03:59:05.188Z,952.13
2023-01-19T04:04:06.195Z,952.17
2023-01-19T04:09:07.883Z,952.22
2023-01-19T04:14:09.619Z,952.21
2023-01-19T04:19:11.400Z,952.26
2023-01-19T04:24:13.043Z,952.25
2023-01-19T04:29:15.154Z,952.29
2023-01-19T04:34:17.073Z,952.26
2023-01-19T04:39:18.565Z,952.17
2023-01-19T04:44:19.999Z,952.15
2023-01-19T04:49:21.396Z,952.2
2023-01-19T04:54:23.598Z,952.27
2023-01-19T04:59:24.823Z,952.21
2023-01-19T05:04:26.768Z,952.34
2023-01-19T05:09:28.198Z,952.35
2023-01-19T05:14:29.730Z,952.37
2023-01-19T05:19:31.738Z,952.39
2023-01-19T05:24:32.949Z,952.42
2023-01-19T05:29:34.904Z,952.43
2023-01-19T05:34:36.543Z,952.48
2023-01-19T05:39:38.315Z,952.55
2023-01-19T05:44:40.113Z,952.58
2023-01-19T05:49:42.021Z,952.62
2023-01-19T05:54:43.876Z,952.71
2023-01-19T05:59:45.570Z,952.71
2023-01-19T06:04:46.835Z,952.76
2023-01-19T06:09:48.530Z,952.88
2023-01-19T06:14:50.732Z,952.97
2023-01-19T06:19:52.091Z,953
2023-01-19T06:24:54.162Z,953.06
2023-01-19T06:29:55.400Z,953.16
2023-01-19T06:34:56.670Z,953.19
2023-01-19T06:39:58.819Z,953.17
2023-01-19T06:45:00.548Z,953.23
2023-01-19T06:50:02.481Z,953.19
2023-01-19T06:55:04.131Z,953.26
2023-01-19T07:00:05.716Z,953.41
2023-01-19T07:05:06.957Z,953.42
2023-01-19T07:10:08.954Z,953.48
2023-01-19T07:15:10.868Z,953.47
2023-01-19T07:20:12.334Z,953.51
2023-01-19T07:55:24.844Z,953.8
2023-01-19T08:00:26.591Z,953.76
2023-01-19T08:15:31.367Z,953.92
2023-01-19T08:20:32.888Z,953.96
2023-01-19T08:30:36.088Z,954.06
2023-01-19T08:40:39.874Z,954.14
2023-01-19T08:45:41.215Z,954.17
2023-01-19T08:50:43.111Z,954.24
2023-01-19T08:55:45.082Z,954.28
2023-01-19T09:00:47.167Z,954.32
2023-01-19T09:05:48.828Z,954.37
2023-01-19T09:10:50.400Z,954.32
2023-01-19T09:15:51.984Z,954.34
2023-01-19T09:20:59.561Z,954.37
2023-01-19T09:26:01.091Z,954.34
2023-01-19T09:31:02.433Z,954.36
2023-01-19T09:36:04.014Z,954.28
2023-01-19T09:41:06.124Z,954.27
2023-01-19T09:46:08.707Z,954.27
2023-01-19T09:51:09.623Z,954.23
2023-01-19T09:56:11.069Z,954.21
2023-01-19T10:01:13.120Z,954.23
2023-01-19T10:06:14.671Z,954.2
2023-01-19T10:11:16.337Z,954.24
2023-01-19T10:16:18.360Z,954.24
2023-01-19T10:21:19.497Z,954.23
2023-01-19T10:26:21.259Z,954.23
2023-01-19T10:31:22.937Z,954.24
2023-01-19T10:36:24.625Z,954.21
2023-01-19T10:41:26.611Z,954.2
2023-01-19T10:46:28.580Z,954.16
2023-01-19T10:51:29.796Z,954.21
2023-01-19T10:56:31.978Z,954.18
2023-01-19T11:01:33.573Z,954.08
2023-01-19T11:06:35.421Z,954.11
2023-01-19T11:11:36.993Z,954.16
2023-01-19T11:16:38.308Z,954.14
2023-01-19T11:21:39.880Z,954.13
2023-01-19T11:26:42.003Z,954.04
2023-01-19T11:31:44.198Z,954.03
2023-01-19T11:36:45.904Z,954
2023-01-19T11:41:47.985Z,953.92
2023-01-19T11:46:50.361Z,953.9
2023-01-19T11:51:51.876Z,953.83
2023-01-19T11:56:53.948Z,953.79
2023-01-19T12:01:56.009Z,953.82
2023-01-19T12:06:57.795Z,953.78
2023-01-19T12:11:59.173Z,953.74
2023-01-19T12:17:00.999Z,953.71
2023-01-19T12:22:02.331Z,953.74
2023-01-19T12:27:04.207Z,953.71
2023-01-19T12:32:06.414Z,953.68
2023-01-19T12:37:08.323Z,953.66
2023-01-19T12:42:10.297Z,953.64
2023-01-19T12:47:11.591Z,953.67
2023-01-19T12:52:12.862Z,953.69
2023-01-19T12:57:14.488Z,953.65
2023-01-19T13:02:16.127Z,953.66
2023-01-19T13:07:17.885Z,953.57
2023-01-19T13:12:19.889Z,953.52
2023-01-19T13:17:21.857Z,953.49
2023-01-19T13:22:23.170Z,953.49
2023-01-19T13:27:25.100Z,953.55
2023-01-19T13:32:27.193Z,953.55
2023-01-19T13:37:28.945Z,953.62
2023-01-19T13:42:30.542Z,953.64
2023-01-19T13:47:32.511Z,953.63
2023-01-19T13:52:33.737Z,953.65
2023-01-19T13:57:35.687Z,953.68
2023-01-19T14:02:37.196Z,953.66
2023-01-19T14:07:38.499Z,953.68
2023-01-19T14:12:51.308Z,953.7
2023-01-19T14:17:41.973Z,953.73
2023-01-19T14:22:43.672Z,953.77
2023-01-19T14:27:45.587Z,953.74
2023-01-19T14:32:47.423Z,953.78
2023-01-19T14:37:49.046Z,953.81
2023-01-19T14:42:50.347Z,953.84
2023-01-19T14:47:51.992Z,953.8
2023-01-19T14:52:53.439Z,953.83
2023-01-19T14:57:55.132Z,953.89
2023-01-19T15:02:56.420Z,953.92
2023-01-19T15:07:58.121Z,953.96
2023-01-19T15:12:59.841Z,954.03
2023-01-19T15:18:01.917Z,954.06
2023-01-19T15:23:03.391Z,954.11
2023-01-19T15:28:05.033Z,954.1
2023-01-19T15:33:06.624Z,954.12
2023-01-19T15:38:08.061Z,954.13
2023-01-19T15:43:09.520Z,954.17
2023-01-19T15:48:11.384Z,954.2
2023-01-19T15:53:13.380Z,954.23
2023-01-19T15:58:15.009Z,954.23
2023-01-19T16:03:16.912Z,954.23
2023-01-19T16:08:18.790Z,954.27
2023-01-19T16:13:20.358Z,954.29
2023-01-19T16:18:22.012Z,954.32
2023-01-19T16:23:24.073Z,954.35
2023-01-19T16:28:25.427Z,954.36
2023-01-19T16:33:27.061Z,954.38
2023-01-19T16:38:28.375Z,954.38
2023-01-19T16:43:30.155Z,954.4
2023-01-19T16:48:31.797Z,954.38
2023-01-19T16:53:33.303Z,954.36
2023-01-19T16:58:35.186Z,954.35
2023-01-19T17:03:36.471Z,954.36
2023-01-19T17:08:38.416Z,954.4
2023-01-19T17:13:39.734Z,954.38
2023-01-19T17:18:41.552Z,954.42
2023-01-19T17:23:43.349Z,954.43
2023-01-19T17:28:45.107Z,954.32
2023-01-19T17:33:47.037Z,954.36
2023-01-19T17:38:48.585Z,954.34
2023-01-19T17:43:49.887Z,954.34
2023-01-19T17:48:51.957Z,954.32
2023-01-19T17:53:54.012Z,954.33
2023-01-19T17:58:55.434Z,954.33
2023-01-19T18:03:57.187Z,954.39
2023-01-19T18:08:58.755Z,954.46
2023-01-19T18:14:00.565Z,954.48
2023-01-19T18:19:01.923Z,954.5
2023-01-19T18:24:03.707Z,954.51
2023-01-19T18:29:05.227Z,954.51
2023-01-19T18:34:06.704Z,954.48
2023-01-19T18:39:07.896Z,954.46
2023-01-19T18:44:09.323Z,954.54
2023-01-19T18:49:11.188Z,954.54
2023-01-19T18:54:13.146Z,954.52
2023-01-19T18:59:15.230Z,954.56
2023-01-19T19:04:16.725Z,954.53
2023-01-19T19:09:17.792Z,954.56
2023-01-19T19:14:19.107Z,954.56
2023-01-19T19:19:20.531Z,954.56
2023-01-19T19:24:21.881Z,954.51
2023-01-19T19:29:23.682Z,954.41
2023-01-19T19:34:24.707Z,954.49
2023-01-19T19:39:26.553Z,954.54
2023-01-19T19:44:28.562Z,954.52
2023-01-19T19:49:30.121Z,954.54
2023-01-19T19:54:31.916Z,954.55
2023-01-19T19:59:33.946Z,954.52
2023-01-19T20:04:35.026Z,954.49
2023-01-19T20:09:36.298Z,954.55
2023-01-19T20:14:37.531Z,954.52
2023-01-19T20:19:39.435Z,954.56
2023-01-19T20:24:41.061Z,954.62
2023-01-19T20:29:43.225Z,954.6
2023-01-19T20:34:44.729Z,954.55
2023-01-19T20:39:46.354Z,954.53
2023-01-19T20:44:48.076Z,954.53
2023-01-19T20:49:50.134Z,954.53
2023-01-19T20:54:52.255Z,954.53
2023-01-19T20:59:54.007Z,954.53
2023-01-19T21:04:55.439Z,954.56
2023-01-19T21:09:56.477Z,954.49
2023-01-19T21:14:58.699Z,954.53
2023-01-19T21:20:00.356Z,954.6
2023-01-19T21:25:02.086Z,954.54
2023-01-19T21:30:03.534Z,954.49
2023-01-19T21:35:04.802Z,954.49
2023-01-19T21:40:06.741Z,954.53
2023-01-19T21:45:08.609Z,954.54
2023-01-19T21:50:10.810Z,954.6
2023-01-19T22:10:18.107Z,954.76
2023-01-19T22:25:22.562Z,954.92
2023-01-19T22:35:26.066Z,955
2023-01-19T22:45:30.019Z,954.99
2023-01-19T22:55:33.993Z,955.03
2023-01-19T23:00:36.083Z,954.99
2023-01-19T23:10:39.380Z,954.94
2023-01-19T23:15:41.330Z,954.92
2023-01-19T23:20:43.017Z,954.96
2023-01-19T23:25:44.859Z,954.99
2023-01-19T23:30:46.430Z,955
2023-01-19T23:35:48.279Z,954.99
2023-01-19T23:40:50.103Z,955.02
2023-01-19T23:45:51.573Z,955.03
2023-01-19T23:50:53.649Z,954.96
2023-01-19T23:55:55.093Z,954.98
